createdAt,value
2022-11-24T00:02:21.014Z,42.30
2022-11-24T00:04:51.841Z,42.33
2022-11-24T00:07:22.887Z,42.32
2022-11-24T00:09:53.429Z,42.11
2022-11-24T00:12:24.245Z,42.37
2022-11-24T00:14:56.449Z,42.48
2022-11-24T00:17:26.729Z,42.51
2022-11-24T00:19:57.893Z,42.46
2022-11-24T00:22:28.758Z,42.46
2022-11-24T00:24:59.155Z,42.44
2022-11-24T00:27:29.876Z,42.61
2022-11-24T00:30:02.759Z,42.28
2022-11-24T00:32:33.825Z,42.57
2022-11-24T00:35:04.430Z,42.65
2022-11-24T00:37:34.706Z,42.51
2022-11-24T00:40:04.785Z,42.55
2022-11-24T00:42:35.019Z,42.45
2022-11-24T00:45:13.865Z,42.47
2022-11-24T00:47:45.160Z,42.50
2022-11-24T00:50:15.788Z,42.51
2022-11-24T00:52:46.850Z,42.68
2022-11-24T00:55:17.183Z,42.60
2022-11-24T00:57:47.331Z,42.21
2022-11-24T01:00:21.241Z,42.33
2022-11-24T01:02:52.030Z,42.20
2022-11-24T01:05:22.128Z,42.44
2022-11-24T01:07:53.077Z,42.39
2022-11-24T01:10:23.318Z,42.41
2022-11-24T01:12:54.129Z,42.39
2022-11-24T01:15:26.675Z,42.33
2022-11-24T01:17:57.164Z,42.38
2022-11-24T01:20:28.077Z,42.39
2022-11-24T01:22:58.772Z,42.10
2022-11-24T01:25:29.020Z,42.73
2022-11-24T01:27:59.668Z,42.14
2022-11-24T01:30:31.711Z,42.41
2022-11-24T01:33:02.606Z,42.42
2022-11-24T01:35:33.289Z,42.22
2022-11-24T01:38:03.488Z,42.42
2022-11-24T01:40:34.194Z,42.29
2022-11-24T01:43:04.121Z,42.05
2022-11-24T01:45:41.359Z,42.35
2022-11-24T01:48:27.116Z,42.27
2022-11-24T01:51:07.821Z,42.42
2022-11-24T01:53:39.720Z,42.21
2022-11-24T01:56:13.066Z,42.41
2022-11-24T01:58:47.124Z,42.44
2022-11-24T02:01:20.351Z,42.45
2022-11-24T02:03:52.684Z,42.45
2022-11-24T02:06:29.758Z,42.43
2022-11-24T02:09:06.497Z,42.36
2022-11-24T02:11:41.423Z,42.31
2022-11-24T02:14:18.401Z,42.19
2022-11-24T02:17:05.565Z,42.54
2022-11-24T02:19:53.418Z,42.31
2022-11-24T02:22:35.687Z,42.41
2022-11-24T02:25:22.489Z,42.47
2022-11-24T02:27:57.407Z,42.35
2022-11-24T02:30:28.163Z,43.10
2022-11-24T02:32:59.011Z,42.69
2022-11-24T02:35:31.159Z,42.45
2022-11-24T02:38:01.839Z,42.74
2022-11-24T02:40:33.128Z,42.72
2022-11-24T02:43:13.022Z,42.87
2022-11-24T02:45:43.524Z,42.79
2022-11-24T02:48:14.199Z,42.73
2022-11-24T02:50:45.042Z,43.03
2022-11-24T02:53:15.970Z,43.13
2022-11-24T02:55:46.022Z,43.08
2022-11-24T02:58:18.330Z,42.90
2022-11-24T03:00:49.033Z,43.03
2022-11-24T03:03:19.188Z,43.04
2022-11-24T03:05:48.992Z,43.22
2022-11-24T03:08:19.657Z,43.06
2022-11-24T03:10:50.617Z,43.16
2022-11-24T03:13:22.865Z,43.14
2022-11-24T03:15:53.926Z,43.12
2022-11-24T03:18:25.308Z,43.22
2022-11-24T03:20:55.884Z,43.58
2022-11-24T03:23:26.460Z,43.46
2022-11-24T03:25:56.819Z,43.59
2022-11-24T03:28:28.121Z,43.73
2022-11-24T03:30:58.838Z,43.69
2022-11-24T03:33:28.891Z,43.67
2022-11-24T03:35:59.477Z,43.65
2022-11-24T03:38:29.493Z,43.75
2022-11-24T03:41:00.554Z,43.80
2022-11-24T03:43:35.923Z,43.71
2022-11-24T03:46:18.911Z,43.75
2022-11-24T03:48:49.657Z,43.67
2022-11-24T03:51:20.580Z,43.59
2022-11-24T03:53:50.910Z,43.70
2022-11-24T03:56:21.577Z,43.56
2022-11-24T03:58:53.909Z,43.78
2022-11-24T04:01:24.176Z,43.75
2022-11-24T04:03:54.661Z,43.54
2022-11-24T04:06:24.819Z,43.51
2022-11-24T04:08:55.013Z,43.63
2022-11-24T04:11:41.802Z,43.70
2022-11-24T04:14:14.586Z,43.96
2022-11-24T04:16:45.186Z,43.87
2022-11-24T04:19:15.777Z,43.88
2022-11-24T04:21:46.712Z,44.04
2022-11-24T04:24:16.561Z,43.79
2022-11-24T04:26:47.080Z,43.84
2022-11-24T04:29:20.111Z,43.93
2022-11-24T04:31:50.984Z,43.65
2022-11-24T04:34:21.965Z,43.93
2022-11-24T04:36:52.686Z,43.84
2022-11-24T04:39:28.308Z,43.97
2022-11-24T04:41:59.009Z,44.07
2022-11-24T04:44:31.286Z,43.98
2022-11-24T04:47:01.930Z,43.86
2022-11-24T04:49:33.172Z,44.18
2022-11-24T04:52:04.251Z,43.96
2022-11-24T04:54:35.108Z,43.91
2022-11-24T04:57:05.959Z,44.08
2022-11-24T04:59:38.752Z,44.13
2022-11-24T05:02:09.388Z,44.09
2022-11-24T05:04:40.922Z,44.05
2022-11-24T05:07:18.360Z,44.43
2022-11-24T05:10:02.479Z,44.24
2022-11-24T05:12:33.257Z,44.30
2022-11-24T05:15:08.224Z,44.39
2022-11-24T05:17:40.853Z,44.81
2022-11-24T05:20:12.380Z,44.56
2022-11-24T05:22:43.190Z,44.57
2022-11-24T05:25:16.422Z,44.65
2022-11-24T05:27:46.190Z,44.52
2022-11-24T05:30:21.576Z,44.76
2022-11-24T05:32:51.658Z,44.89
2022-11-24T05:35:21.980Z,44.84
2022-11-24T05:37:52.348Z,44.84
2022-11-24T05:40:23.369Z,44.92
2022-11-24T05:42:54.075Z,45.02
2022-11-24T05:45:27.306Z,44.82
2022-11-24T05:47:58.116Z,45.16
2022-11-24T05:50:29.366Z,45.29
2022-11-24T05:53:04.528Z,45.42
2022-11-24T05:55:36.232Z,45.63
2022-11-24T05:58:11.054Z,45.84
2022-11-24T06:00:42.853Z,45.89
2022-11-24T06:03:13.899Z,46.18
2022-11-24T06:05:48.994Z,46.01
2022-11-24T06:08:19.156Z,46.11
2022-11-24T06:10:49.090Z,46.36
2022-11-24T06:13:21.158Z,46.52
2022-11-24T06:15:53.570Z,46.58
2022-11-24T06:18:24.418Z,46.47
2022-11-24T06:21:10.393Z,46.35
2022-11-24T06:23:41.957Z,46.03
2022-11-24T06:26:14.356Z,46.15
2022-11-24T06:28:45.142Z,46.11
2022-11-24T06:31:17.831Z,45.78
2022-11-24T06:33:49.001Z,46.26
2022-11-24T06:36:19.808Z,45.97
2022-11-24T06:38:50.371Z,45.95
2022-11-24T06:41:20.908Z,45.83
2022-11-24T06:43:51.019Z,45.73
2022-11-24T06:46:23.887Z,45.93
2022-11-24T06:48:55.185Z,45.99
2022-11-24T06:51:26.516Z,45.55
2022-11-24T06:53:57.498Z,45.65
2022-11-24T06:56:28.560Z,45.72
2022-11-24T06:58:58.725Z,45.32
2022-11-24T07:01:33.042Z,44.99
2022-11-24T07:04:05.608Z,45.28
2022-11-24T07:06:35.341Z,45.35
2022-11-24T07:09:06.048Z,44.78
2022-11-24T07:11:36.824Z,45.20
2022-11-24T07:14:08.140Z,45.08
2022-11-24T07:16:42.151Z,45.88
2022-11-24T07:19:12.607Z,45.35
2022-11-24T07:21:43.272Z,45.19
2022-11-24T07:24:14.333Z,45.44
2022-11-24T07:26:44.730Z,45.17
2022-11-24T07:29:14.672Z,45.17
2022-11-24T07:31:47.760Z,45.08
2022-11-24T07:34:18.283Z,44.72
2022-11-24T07:36:49.125Z,44.87
2022-11-24T07:39:19.947Z,44.93
2022-11-24T07:41:50.661Z,44.92
2022-11-24T07:44:21.013Z,44.83
2022-11-24T07:46:53.071Z,45.13
2022-11-24T07:49:23.140Z,44.98
2022-11-24T07:51:53.822Z,45.19
2022-11-24T07:54:24.576Z,45.50
2022-11-24T07:56:54.705Z,44.90
2022-11-24T07:59:25.247Z,45.09
2022-11-24T08:02:11.269Z,45.07
2022-11-24T08:04:43.918Z,44.92
2022-11-24T08:07:15.010Z,44.89
2022-11-24T08:09:45.132Z,44.63
2022-11-24T08:12:14.849Z,44.66
2022-11-24T08:14:45.652Z,44.55
2022-11-24T08:17:17.764Z,44.29
2022-11-24T08:19:48.658Z,44.60
2022-11-24T08:22:19.229Z,44.65
2022-11-24T08:24:49.807Z,44.65
2022-11-24T08:27:21.215Z,44.13
2022-11-24T08:29:52.074Z,44.35
2022-11-24T08:32:24.853Z,44.36
2022-11-24T08:34:59.652Z,44.46
2022-11-24T08:37:38.892Z,44.52
2022-11-24T08:40:10.983Z,44.38
2022-11-24T08:42:41.422Z,44.03
2022-11-24T08:45:20.753Z,44.12
2022-11-24T08:47:58.193Z,44.04
2022-11-24T08:50:28.493Z,43.84
2022-11-24T08:52:59.141Z,43.99
2022-11-24T08:55:29.274Z,43.94
2022-11-24T08:57:59.519Z,43.31
2022-11-24T09:00:29.409Z,43.62
2022-11-24T09:03:02.796Z,43.32
2022-11-24T09:08:24.277Z,42.79
2022-11-24T09:10:55.201Z,42.92
2022-11-24T09:13:26.132Z,42.67
2022-11-24T09:15:56.898Z,42.82
2022-11-24T09:21:32.139Z,42.98
2022-11-24T09:24:03.019Z,42.49
2022-11-24T09:26:36.849Z,42.91
2022-11-24T09:29:09.238Z,42.61
2022-11-24T09:31:41.014Z,43.04
2022-11-24T09:34:17.666Z,42.61
2022-11-24T09:36:49.657Z,42.84
2022-11-24T09:39:19.729Z,42.71
2022-11-24T09:42:17.880Z,42.79
2022-11-24T09:45:42.055Z,42.58
2022-11-24T09:48:28.665Z,42.91
2022-11-24T09:51:07.924Z,42.58
2022-11-24T09:53:46.754Z,42.49
2022-11-24T09:56:24.971Z,42.46
2022-11-24T09:59:03.203Z,42.60
2022-11-24T10:01:38.727Z,42.34
2022-11-24T10:04:22.236Z,42.21
2022-11-24T10:07:06.535Z,42.37
2022-11-24T10:10:10.639Z,42.27
2022-11-24T10:13:02.964Z,42.19
2022-11-24T10:15:49.915Z,42.44
2022-11-24T10:18:52.775Z,42.46
2022-11-24T10:21:58.573Z,42.50
2022-11-24T10:25:07.160Z,42.17
2022-11-24T10:27:45.317Z,42.29
2022-11-24T10:30:24.377Z,41.98
2022-11-24T10:33:04.320Z,41.70
2022-11-24T10:35:46.004Z,42.02
2022-11-24T10:38:37.490Z,42.05
2022-11-24T10:41:17.864Z,41.67
2022-11-24T10:43:47.748Z,41.80
2022-11-24T10:46:26.650Z,41.54
2022-11-24T10:49:03.708Z,41.86
2022-11-24T10:52:02.745Z,41.45
2022-11-24T10:54:32.804Z,42.02
2022-11-24T10:57:05.500Z,41.46
2022-11-24T10:59:40.797Z,41.72
2022-11-24T11:02:38.883Z,41.83
2022-11-24T11:05:42.656Z,41.76
2022-11-24T11:08:24.282Z,41.46
2022-11-24T11:11:21.523Z,41.42
2022-11-24T11:14:05.167Z,41.64
2022-11-24T11:16:42.469Z,41.79
2022-11-24T11:20:01.722Z,41.86
2022-11-24T11:22:33.896Z,41.34
2022-11-24T11:25:25.073Z,41.68
2022-11-24T11:28:25.748Z,41.37
2022-11-24T11:31:21.447Z,41.70
2022-11-24T11:34:09.437Z,41.31
2022-11-24T11:36:47.407Z,41.42
2022-11-24T11:39:33.479Z,41.35
2022-11-24T11:45:28.938Z,41.33
2022-11-24T11:48:43.523Z,41.06
2022-11-24T11:55:00.369Z,41.45
2022-11-24T11:57:51.578Z,41.32
2022-11-24T12:00:24.368Z,41.46
2022-11-24T12:03:44.901Z,41.58
2022-11-24T12:06:58.175Z,41.50
2022-11-24T12:09:52.701Z,41.48
2022-11-24T12:12:56.842Z,41.28
2022-11-24T12:15:40.400Z,41.51
2022-11-24T12:21:55.391Z,40.86
2022-11-24T12:24:51.056Z,41.00
2022-11-24T12:27:47.915Z,41.15
2022-11-24T12:30:24.589Z,41.28
2022-11-24T12:33:38.128Z,40.80
2022-11-24T12:36:34.216Z,41.23
2022-11-24T12:39:13.753Z,41.07
2022-11-24T12:42:04.634Z,40.96
2022-11-24T12:45:06.966Z,40.95
2022-11-24T12:48:01.187Z,41.09
2022-11-24T12:50:36.881Z,41.16
2022-11-24T12:53:18.438Z,40.89
2022-11-24T12:55:50.020Z,40.89
2022-11-24T12:58:34.463Z,40.72
2022-11-24T13:01:20.388Z,40.82
2022-11-24T13:04:15.832Z,41.05
2022-11-24T13:06:58.110Z,40.84
2022-11-24T13:09:29.976Z,40.91
2022-11-24T13:12:17.221Z,41.27
2022-11-24T13:14:51.584Z,41.05
2022-11-24T13:17:50.295Z,40.75
2022-11-24T13:20:35.187Z,40.74
2022-11-24T13:23:10.797Z,40.77
2022-11-24T13:26:31.194Z,40.78
2022-11-24T13:29:18.341Z,41.04
2022-11-24T13:31:57.697Z,41.04
2022-11-24T13:35:09.660Z,40.87
2022-11-24T13:37:54.755Z,40.57
2022-11-24T13:41:06.207Z,40.69
2022-11-24T13:43:39.727Z,40.55
2022-11-24T13:46:13.663Z,40.69
2022-11-24T13:49:05.479Z,40.93
2022-11-24T13:51:38.322Z,40.59
2022-11-24T13:54:15.519Z,40.54
2022-11-24T13:56:46.706Z,40.35
2022-11-24T13:59:37.215Z,40.61
2022-11-24T14:02:27.169Z,40.73
2022-11-24T14:04:59.285Z,40.54
2022-11-24T14:07:32.193Z,40.51
2022-11-24T14:10:04.626Z,40.69
2022-11-24T14:12:36.363Z,40.38
2022-11-24T14:15:29.956Z,40.34
2022-11-24T14:18:01.819Z,40.42
2022-11-24T14:20:33.354Z,40.51
2022-11-24T14:23:04.596Z,40.45
2022-11-24T14:25:36.011Z,40.70
2022-11-24T14:28:17.981Z,40.47
2022-11-24T14:30:50.257Z,40.40
2022-11-24T14:33:23.838Z,40.46
2022-11-24T14:35:54.900Z,40.35
2022-11-24T14:38:24.824Z,40.27
2022-11-24T14:40:57.696Z,40.13
2022-11-24T14:43:34.374Z,40.12
2022-11-24T14:46:10.856Z,40.50
2022-11-24T14:48:54.270Z,40.35
2022-11-24T14:51:29.301Z,40.36
2022-11-24T14:54:04.364Z,40.08
2022-11-24T14:56:38.578Z,40.27
2022-11-24T14:59:28.215Z,40.33
2022-11-24T15:02:02.241Z,40.30
2022-11-24T15:07:38.631Z,40.39
2022-11-24T15:10:24.168Z,40.37
2022-11-24T15:13:01.223Z,40.24
2022-11-24T15:15:36.163Z,40.15
2022-11-24T15:18:28.118Z,40.09
2022-11-24T15:20:58.521Z,40.26
2022-11-24T15:23:31.728Z,40.16
2022-11-24T15:26:33.048Z,40.27
2022-11-24T15:29:06.065Z,40.02
2022-11-24T15:31:37.108Z,40.10
2022-11-24T15:34:12.202Z,40.08
2022-11-24T15:36:42.858Z,40.13
2022-11-24T15:39:16.906Z,39.93
2022-11-24T15:41:47.806Z,40.17
2022-11-24T15:44:19.306Z,39.95
2022-11-24T15:46:49.455Z,40.12
2022-11-24T15:49:21.176Z,39.90
2022-11-24T15:51:52.229Z,39.92
2022-11-24T15:54:25.714Z,40.00
2022-11-24T15:56:56.376Z,39.97
2022-11-24T15:59:26.794Z,39.97
2022-11-24T16:01:57.840Z,40.02
2022-11-24T16:04:32.899Z,40.02
2022-11-24T16:07:07.573Z,39.86
2022-11-24T16:09:38.483Z,40.04
2022-11-24T16:12:10.893Z,39.90
2022-11-24T16:14:42.440Z,40.00
2022-11-24T16:17:15.320Z,39.93
2022-11-24T16:20:00.110Z,39.89
2022-11-24T16:22:33.432Z,39.83
2022-11-24T16:25:04.526Z,40.04
2022-11-24T16:27:34.445Z,40.14
2022-11-24T16:30:05.398Z,39.98
2022-11-24T16:32:36.309Z,39.77
2022-11-24T16:35:15.030Z,39.84
2022-11-24T16:37:45.964Z,40.11
2022-11-24T16:40:18.644Z,39.99
2022-11-24T16:42:49.465Z,39.97
2022-11-24T16:45:19.698Z,40.03
2022-11-24T16:47:51.408Z,40.15
2022-11-24T16:50:24.460Z,40.06
2022-11-24T16:52:55.233Z,40.27
2022-11-24T16:55:26.982Z,40.07
2022-11-24T16:57:59.928Z,40.15
2022-11-24T17:00:30.904Z,40.01
2022-11-24T17:03:01.505Z,40.18
2022-11-24T17:05:34.449Z,39.76
2022-11-24T17:08:08.893Z,39.91
2022-11-24T17:10:41.622Z,40.05
2022-11-24T17:13:11.405Z,40.05
2022-11-24T17:15:47.217Z,39.91
2022-11-24T17:18:24.843Z,40.33
2022-11-24T17:21:07.800Z,40.16
2022-11-24T17:23:40.970Z,40.07
2022-11-24T17:26:15.704Z,39.98
2022-11-24T17:28:48.637Z,40.18
2022-11-24T17:31:23.490Z,40.29
2022-11-24T17:33:56.763Z,40.08
2022-11-24T17:36:29.873Z,40.04
2022-11-24T17:39:04.945Z,40.09
2022-11-24T17:41:35.961Z,39.96
2022-11-24T17:44:06.898Z,40.09
2022-11-24T17:46:37.469Z,40.01
2022-11-24T17:49:13.499Z,39.96
2022-11-24T17:51:46.809Z,40.10
2022-11-24T17:54:45.956Z,39.96
2022-11-24T17:57:07.494Z,39.86
2022-11-24T17:59:38.160Z,40.13
2022-11-24T18:02:08.659Z,40.08
2022-11-24T18:04:38.744Z,40.20
2022-11-24T18:07:10.855Z,39.85
2022-11-24T18:09:41.650Z,40.11
2022-11-24T18:12:12.236Z,39.74
2022-11-24T18:14:42.556Z,40.13
2022-11-24T18:17:13.397Z,40.08
2022-11-24T18:19:44.140Z,40.01
2022-11-24T18:22:16.294Z,40.05
2022-11-24T18:24:46.745Z,39.83
2022-11-24T18:27:17.203Z,40.03
2022-11-24T18:29:50.854Z,40.12
2022-11-24T18:32:23.802Z,40.05
2022-11-24T18:34:54.580Z,40.13
2022-11-24T18:37:26.923Z,40.14
2022-11-24T18:39:56.894Z,40.12
2022-11-24T18:42:27.426Z,40.15
2022-11-24T18:44:58.762Z,40.17
2022-11-24T18:47:29.637Z,40.11
2022-11-24T18:50:00.539Z,40.46
2022-11-24T18:52:32.526Z,40.26
2022-11-24T18:55:05.227Z,40.29
2022-11-24T18:57:35.328Z,40.20
2022-11-24T19:00:07.465Z,40.31
2022-11-24T19:02:38.039Z,40.41
2022-11-24T19:05:09.003Z,39.93
2022-11-24T19:07:41.500Z,40.22
2022-11-24T19:10:13.866Z,40.31
2022-11-24T19:12:45.234Z,40.40
2022-11-24T19:15:16.287Z,40.29
2022-11-24T19:17:47.533Z,40.36
2022-11-24T19:20:17.910Z,40.42
2022-11-24T19:22:50.295Z,40.25
2022-11-24T19:25:20.876Z,40.31
2022-11-24T19:27:50.869Z,40.42
2022-11-24T19:30:21.553Z,40.37
2022-11-24T19:32:52.014Z,40.31
2022-11-24T19:35:22.559Z,40.36
2022-11-24T19:37:56.151Z,40.48
2022-11-24T19:40:26.408Z,40.69
2022-11-24T19:42:57.006Z,40.44
2022-11-24T19:45:29.593Z,40.50
2022-11-24T19:48:00.150Z,40.24
2022-11-24T19:50:30.651Z,40.39
2022-11-24T19:53:02.806Z,40.49
2022-11-24T19:55:32.773Z,40.49
2022-11-24T19:58:03.254Z,40.41
2022-11-24T20:00:33.657Z,40.39
2022-11-24T20:03:03.892Z,40.63
2022-11-24T20:05:34.385Z,40.64
2022-11-24T20:08:07.370Z,40.46
2022-11-24T20:10:40.232Z,40.51
2022-11-24T20:13:10.835Z,40.65
2022-11-24T20:15:41.457Z,40.49
2022-11-24T20:18:11.268Z,40.48
2022-11-24T20:20:41.140Z,40.60
2022-11-24T20:23:14.170Z,40.53
2022-11-24T20:25:44.203Z,40.51
2022-11-24T20:28:15.045Z,40.58
2022-11-24T20:30:44.866Z,40.48
2022-11-24T20:33:15.526Z,40.39
2022-11-24T20:35:45.513Z,40.62
2022-11-24T20:38:17.596Z,40.62
2022-11-24T20:40:47.590Z,40.51
2022-11-24T20:43:19.063Z,40.48
2022-11-24T20:45:49.055Z,40.69
2022-11-24T20:48:18.560Z,40.57
2022-11-24T20:50:51.456Z,40.46
2022-11-24T20:53:24.130Z,40.54
2022-11-24T20:55:54.043Z,40.50
2022-11-24T20:58:24.312Z,40.49
2022-11-24T21:00:55.726Z,40.32
2022-11-24T21:03:26.645Z,40.45
2022-11-24T21:05:58.649Z,40.61
2022-11-24T21:08:30.681Z,40.45
2022-11-24T21:11:02.693Z,40.18
2022-11-24T21:13:36.646Z,40.49
2022-11-24T21:16:15.929Z,40.29
2022-11-24T21:18:47.766Z,40.48
2022-11-24T21:21:18.725Z,40.70
2022-11-24T21:23:52.142Z,40.61
2022-11-24T21:26:22.661Z,40.29
2022-11-24T21:28:53.402Z,40.38
2022-11-24T21:31:25.132Z,40.44
2022-11-24T21:33:57.343Z,40.38
2022-11-24T21:36:29.353Z,40.31
2022-11-24T21:39:02.218Z,40.61
2022-11-24T21:41:35.736Z,40.44
2022-11-24T21:44:05.709Z,40.44
2022-11-24T21:46:43.941Z,40.46
2022-11-24T21:49:15.736Z,40.42
2022-11-24T21:51:45.654Z,40.50
2022-11-24T21:54:17.881Z,40.10
2022-11-24T21:56:48.570Z,40.35
2022-11-24T21:59:23.644Z,40.24
2022-11-24T22:01:54.440Z,40.24
2022-11-24T22:04:25.491Z,40.23
2022-11-24T22:06:56.606Z,39.86
2022-11-24T22:09:28.435Z,40.34
2022-11-24T22:11:58.995Z,40.20
2022-11-24T22:14:29.827Z,40.33
2022-11-24T22:17:00.159Z,40.43
2022-11-24T22:19:30.910Z,40.48
2022-11-24T22:22:01.337Z,40.38
2022-11-24T22:24:56.951Z,40.21
2022-11-24T22:27:27.544Z,40.46
2022-11-24T22:29:57.993Z,40.30
2022-11-24T22:32:27.680Z,40.48
2022-11-24T22:34:58.058Z,40.29
2022-11-24T22:37:27.927Z,40.21
2022-11-24T22:40:00.455Z,40.19
2022-11-24T22:42:31.011Z,40.61
2022-11-24T22:45:01.472Z,40.23
2022-11-24T22:47:31.804Z,40.56
2022-11-24T22:50:02.847Z,40.24
2022-11-24T22:52:34.655Z,40.34
2022-11-24T22:55:07.441Z,40.09
2022-11-24T22:57:38.227Z,39.90
2022-11-24T23:00:10.619Z,40.11
2022-11-24T23:02:41.246Z,40.20
2022-11-24T23:05:16.748Z,40.17
2022-11-24T23:07:50.226Z,40.34
2022-11-24T23:10:22.737Z,40.16
2022-11-24T23:12:55.081Z,40.26
2022-11-24T23:15:24.913Z,40.10
2022-11-24T23:17:55.298Z,40.19
2022-11-24T23:20:25.760Z,40.22
2022-11-24T23:22:57.338Z,39.90
2022-11-24T23:25:30.285Z,40.08
2022-11-24T23:27:59.933Z,40.00
2022-11-24T23:30:30.498Z,40.46
2022-11-24T23:33:00.605Z,40.16
2022-11-24T23:35:30.986Z,40.31
2022-11-24T23:38:07.572Z,40.25
2022-11-24T23:40:40.313Z,40.02
2022-11-24T23:43:10.317Z,40.10
2022-11-24T23:45:43.232Z,40.02
2022-11-24T23:48:13.232Z,40.05
2022-11-24T23:50:43.825Z,39.95
2022-11-24T23:53:13.988Z,40.24
2022-11-24T23:55:46.821Z,39.88
2022-11-24T23:58:17.147Z,40.04
